Maria Susana, Argentina
Current Conditions -  °F | °C
As of 9:00 PM on Friday 19 Dec 2014 (Local Time) from SAAR Reporting Station
Clear Clear  
Wind Chill: 82°   Ceiling: Unl
Heat Index: 85°   Visibility: 6mi
Dew Point: 68°   Wind: 7mph
Humidity: 62%   Direction: 20°NNE
Pressure: 29.53"   Gusts: NA
Location:  32.27°S, 61.92°W
Report Text: SAAR 200000Z 02006KT CAVOK 28/20 Q1000
Loading
Personal Weather Stations






























Interactive Weather Map New forecast layout! Learn more

10-Day Weather Forecast

Advertisements
Track Severe Weather on mobile